Time;durP1;ratioP1;P1;durP2;ratioP2;P2;SDS_P1;SDS_P2;PMS_P1;PMS_P2;Temp;Humidity;BMP_temperature;BMP_pressure;BME280_temperature;BME280_humidity;BME280_pressure;Samples;Min_cycle;Max_cycle;Signal;HPM_P1;HPM_P2
2022/05/23 00:00:33;;;;;;;;;;;16.20;98.60;;;;;;4592873;19;20373;-21
2022/05/23 00:02:12;;;;;;;;;;;16.20;98.50;;;;;;4591984;19;19911;-21
2022/05/23 00:03:43;;;;;;;;;;;16.20;98.50;;;;;;4593141;19;20222;-21
2022/05/23 00:05:14;;;;;;;;;;;16.20;98.50;;;;;;4592611;19;19952;-21
2022/05/23 00:06:45;;;;;;;;;;;16.20;98.40;;;;;;4592648;19;20299;-21
2022/05/23 00:08:16;;;;;;;;;;;16.20;98.40;;;;;;4593374;19;19925;-21
2022/05/23 00:09:46;;;;;;;;;;;16.20;98.40;;;;;;4592868;19;19918;-21
2022/05/23 00:11:19;;;;;;;;;;;16.20;98.30;;;;;;4593050;19;19918;-21
2022/05/23 00:12:50;;;;;;;;;;;16.20;98.30;;;;;;4593048;19;19915;-21
2022/05/23 00:14:21;;;;;;;;;;;16.20;98.30;;;;;;4592853;19;19911;-20
2022/05/23 00:15:52;;;;;;;;;;;16.20;98.30;;;;;;4592251;19;19925;-21
2022/05/23 00:17:23;;;;;;;;;;;16.20;98.20;;;;;;4592503;19;19911;-21
2022/05/23 00:18:54;;;;;;;;;;;16.20;98.10;;;;;;4592022;19;19922;-21
2022/05/23 00:20:26;;;;;;;;;;;16.20;98.30;;;;;;4592375;19;19914;-21
2022/05/23 00:21:57;;;;;;;;;;;16.20;98.10;;;;;;4592435;19;19921;-21
2022/05/23 00:23:28;;;;;;;;;;;16.20;98.10;;;;;;4591219;19;20578;-21
2022/05/23 00:24:59;;;;;;;;;;;16.20;98.00;;;;;;4592323;19;19978;-21
2022/05/23 00:26:30;;;;;;;;;;;16.20;97.90;;;;;;4591819;19;19918;-22
2022/05/23 00:28:01;;;;;;;;;;;16.20;97.80;;;;;;4589920;19;19982;-21
2022/05/23 00:29:31;;;;;;;;;;;16.20;97.70;;;;;;4592028;19;19914;-21
2022/05/23 00:31:03;;;;;;;;;;;16.20;97.70;;;;;;4593030;19;20317;-21
2022/05/23 00:36:13;;;;;;;;;;;16.20;97.60;;;;;;4592066;19;19942;-21
2022/05/23 00:37:44;;;;;;;;;;;16.20;97.60;;;;;;4592634;19;19918;-20
2022/05/23 00:39:15;;;;;;;;;;;16.10;97.50;;;;;;4592809;19;19918;-21
2022/05/23 00:40:50;;;;;;;;;;;16.20;97.50;;;;;;4591852;19;19907;-21
2022/05/23 00:44:12;;;;;;;;;;;16.10;97.40;;;;;;4592367;19;20329;-21
2022/05/23 00:45:45;;;;;;;;;;;16.10;97.40;;;;;;4591313;19;19914;-21
2022/05/23 00:47:17;;;;;;;;;;;16.10;97.30;;;;;;4591617;19;19914;-21
2022/05/23 00:48:48;;;;;;;;;;;16.10;97.20;;;;;;4592222;19;19919;-21
2022/05/23 00:50:19;;;;;;;;;;;16.10;97.20;;;;;;4592166;19;19941;-21
2022/05/23 00:51:50;;;;;;;;;;;16.10;97.10;;;;;;4592176;19;20001;-21
2022/05/23 00:53:24;;;;;;;;;;;16.10;97.10;;;;;;4590545;19;20329;-21
2022/05/23 00:54:56;;;;;;;;;;;16.10;97.10;;;;;;4591362;19;20329;-21
2022/05/23 00:56:30;;;;;;;;;;;16.10;97.10;;;;;;4590961;19;20313;-21
2022/05/23 00:58:03;;;;;;;;;;;16.10;97.30;;;;;;4591195;19;20241;-21
2022/05/23 00:59:34;;;;;;;;;;;16.10;97.00;;;;;;4591199;19;19993;-21
2022/05/23 01:01:06;;;;;;;;;;;16.10;97.00;;;;;;4590887;19;19919;-21
2022/05/23 01:02:37;;;;;;;;;;;16.10;97.00;;;;;;4591436;19;20325;-21
2022/05/23 01:04:08;;;;;;;;;;;16.10;96.90;;;;;;4592335;19;19938;-21
2022/05/23 01:05:39;;;;;;;;;;;16.10;96.90;;;;;;4591465;19;19942;-21
2022/05/23 01:07:12;;;;;;;;;;;16.10;97.00;;;;;;4591429;19;19970;-21
2022/05/23 01:08:42;;;;;;;;;;;16.10;97.00;;;;;;4592161;19;19931;-21
2022/05/23 01:10:13;;;;;;;;;;;16.10;97.00;;;;;;4591725;19;19911;-21
2022/05/23 01:11:44;;;;;;;;;;;16.10;96.90;;;;;;4590352;19;20244;-21
2022/05/23 01:13:15;;;;;;;;;;;16.00;96.80;;;;;;4591357;19;19915;-21
2022/05/23 01:14:49;;;;;;;;;;;16.00;96.70;;;;;;4592391;19;20242;-21
2022/05/23 01:16:21;;;;;;;;;;;16.00;96.70;;;;;;4591249;19;19922;-21
2022/05/23 01:17:52;;;;;;;;;;;16.10;96.80;;;;;;4590267;19;19918;-21
2022/05/23 01:19:23;;;;;;;;;;;16.00;96.70;;;;;;4590405;19;19921;-21
2022/05/23 01:20:55;;;;;;;;;;;16.00;96.60;;;;;;4591078;19;19991;-21
2022/05/23 01:22:47;;;;;;;;;;;16.00;96.50;;;;;;4589430;19;20605;-21
2022/05/23 01:24:20;;;;;;;;;;;16.00;96.50;;;;;;4590168;19;19915;-21
2022/05/23 01:25:52;;;;;;;;;;;16.00;96.50;;;;;;4590343;19;19918;-21
2022/05/23 01:27:22;;;;;;;;;;;16.00;96.30;;;;;;4590550;19;19915;-21
2022/05/23 01:28:53;;;;;;;;;;;16.00;96.40;;;;;;4589907;19;19914;-21
2022/05/23 01:30:24;;;;;;;;;;;16.00;96.30;;;;;;4590787;19;20265;-21
2022/05/23 01:31:57;;;;;;;;;;;16.00;96.30;;;;;;4591676;19;19978;-21
2022/05/23 01:33:28;;;;;;;;;;;16.00;96.20;;;;;;4591578;19;19918;-21
2022/05/23 01:34:59;;;;;;;;;;;16.00;96.30;;;;;;4591047;19;20241;-21
2022/05/23 01:36:30;;;;;;;;;;;16.00;96.30;;;;;;4590989;19;19915;-21
2022/05/23 01:38:01;;;;;;;;;;;16.00;96.30;;;;;;4591607;19;20325;-21
2022/05/23 01:39:32;;;;;;;;;;;16.00;96.30;;;;;;4591310;19;20306;-21
2022/05/23 01:41:04;;;;;;;;;;;16.00;96.10;;;;;;4590972;19;19922;-21
2022/05/23 01:42:35;;;;;;;;;;;16.00;96.10;;;;;;4591484;19;19935;-21
2022/05/23 01:44:06;;;;;;;;;;;16.00;95.90;;;;;;4591055;19;19982;-21
2022/05/23 01:45:38;;;;;;;;;;;16.00;95.90;;;;;;4591172;19;19915;-21
2022/05/23 01:47:10;;;;;;;;;;;16.00;96.00;;;;;;4594906;19;20268;-21
2022/05/23 01:48:41;;;;;;;;;;;16.00;95.90;;;;;;4599698;19;19919;-21
2022/05/23 01:50:12;;;;;;;;;;;16.00;95.80;;;;;;4599883;19;19933;-21
2022/05/23 01:51:43;;;;;;;;;;;16.00;95.70;;;;;;4598396;19;19922;-21
2022/05/23 01:53:13;;;;;;;;;;;16.00;95.70;;;;;;4599483;19;19919;-21
2022/05/23 01:54:44;;;;;;;;;;;16.00;95.70;;;;;;4600107;19;19948;-21
2022/05/23 01:56:15;;;;;;;;;;;16.00;95.90;;;;;;4598971;19;19994;-21
2022/05/23 01:57:46;;;;;;;;;;;16.00;95.90;;;;;;4599198;19;19919;-21
2022/05/23 02:01:13;;;;;;;;;;;16.00;95.90;;;;;;4599565;19;19926;-21
2022/05/23 02:02:47;;;;;;;;;;;16.00;95.90;;;;;;4599851;19;19923;-21
2022/05/23 02:04:18;;;;;;;;;;;16.00;95.90;;;;;;4599267;19;20238;-21
2022/05/23 02:05:49;;;;;;;;;;;16.00;95.80;;;;;;4599629;19;19926;-21
2022/05/23 02:07:20;;;;;;;;;;;16.00;95.70;;;;;;4598955;19;19911;-21
2022/05/23 02:08:51;;;;;;;;;;;16.00;95.50;;;;;;4600067;19;19970;-21
2022/05/23 02:10:22;;;;;;;;;;;16.00;95.60;;;;;;4599088;19;19929;-21
2022/05/23 02:11:53;;;;;;;;;;;16.00;95.60;;;;;;4598463;19;20349;-21
2022/05/23 02:13:24;;;;;;;;;;;16.00;95.50;;;;;;4599509;19;19915;-21
2022/05/23 02:14:55;;;;;;;;;;;16.00;95.50;;;;;;4599950;19;19921;-21
2022/05/23 02:16:27;;;;;;;;;;;15.90;95.50;;;;;;4597922;19;19933;-21
2022/05/23 02:17:59;;;;;;;;;;;16.00;95.40;;;;;;4598137;19;19922;-21
2022/05/23 02:19:30;;;;;;;;;;;15.90;95.30;;;;;;4599237;19;19995;-21
2022/05/23 02:21:01;;;;;;;;;;;15.90;95.20;;;;;;4599134;19;19915;-21
2022/05/23 02:22:33;;;;;;;;;;;15.90;95.30;;;;;;4598222;19;19926;-21
2022/05/23 02:24:04;;;;;;;;;;;15.90;95.30;;;;;;4599188;19;19911;-21
2022/05/23 02:25:35;;;;;;;;;;;15.90;95.30;;;;;;4599696;19;19915;-21
2022/05/23 02:27:06;;;;;;;;;;;15.90;95.20;;;;;;4597378;19;19914;-21
2022/05/23 02:28:37;;;;;;;;;;;15.90;95.30;;;;;;4597918;19;19919;-21
2022/05/23 02:30:08;;;;;;;;;;;15.90;95.20;;;;;;4599021;19;19915;-21
2022/05/23 02:31:39;;;;;;;;;;;15.90;95.30;;;;;;4599301;19;19922;-21
2022/05/23 02:33:10;;;;;;;;;;;16.00;95.40;;;;;;4598797;19;20253;-21
2022/05/23 02:34:41;;;;;;;;;;;16.00;95.40;;;;;;4599272;19;19915;-21
2022/05/23 02:36:12;;;;;;;;;;;16.00;95.50;;;;;;4599460;19;19915;-21
2022/05/23 02:37:43;;;;;;;;;;;16.00;95.50;;;;;;4599557;19;19919;-21
2022/05/23 02:39:14;;;;;;;;;;;16.00;95.50;;;;;;4599048;19;19915;-21
2022/05/23 02:40:45;;;;;;;;;;;16.00;95.60;;;;;;4599034;19;19981;-21
2022/05/23 02:42:16;;;;;;;;;;;16.00;95.70;;;;;;4599479;19;20329;-21
2022/05/23 02:43:47;;;;;;;;;;;16.00;95.50;;;;;;4598547;19;19922;-21
2022/05/23 02:45:18;;;;;;;;;;;16.00;95.30;;;;;;4598945;19;19925;-21
2022/05/23 02:46:49;;;;;;;;;;;16.00;95.30;;;;;;4599113;19;19930;-21
2022/05/23 02:48:20;;;;;;;;;;;16.00;95.40;;;;;;4599378;19;20350;-21
2022/05/23 02:49:50;;;;;;;;;;;16.00;95.50;;;;;;4598580;19;19935;-21
2022/05/23 02:51:22;;;;;;;;;;;16.00;95.50;;;;;;4597436;19;20000;-21
2022/05/23 02:52:53;;;;;;;;;;;16.00;95.40;;;;;;4598868;19;20001;-21
2022/05/23 02:54:24;;;;;;;;;;;16.00;95.40;;;;;;4598881;19;19915;-21
2022/05/23 02:55:54;;;;;;;;;;;16.00;95.40;;;;;;4597425;19;20342;-21
2022/05/23 02:57:26;;;;;;;;;;;15.90;95.30;;;;;;4598787;19;19970;-21
2022/05/23 02:58:57;;;;;;;;;;;16.00;95.20;;;;;;4594577;19;19910;-21
2022/05/23 03:00:27;;;;;;;;;;;16.00;95.10;;;;;;4594103;19;19923;-21
2022/05/23 03:03:48;;;;;;;;;;;15.90;95.10;;;;;;4594229;19;20313;-21
2022/05/23 03:05:19;;;;;;;;;;;15.90;95.40;;;;;;4594940;19;19930;-21
2022/05/23 03:06:50;;;;;;;;;;;16.00;95.20;;;;;;4594199;19;19915;-21
2022/05/23 03:08:22;;;;;;;;;;;15.90;95.10;;;;;;4594156;19;19925;-21
2022/05/23 03:09:53;;;;;;;;;;;16.00;95.20;;;;;;4593382;19;19935;-21
2022/05/23 03:11:24;;;;;;;;;;;15.90;95.20;;;;;;4594176;19;19914;-21
2022/05/23 03:12:55;;;;;;;;;;;15.90;95.30;;;;;;4594017;19;19938;-21
2022/05/23 03:14:26;;;;;;;;;;;15.90;95.30;;;;;;4594114;19;19952;-21
2022/05/23 03:15:58;;;;;;;;;;;15.90;95.40;;;;;;4593721;19;20340;-21
2022/05/23 03:17:29;;;;;;;;;;;15.90;95.40;;;;;;4594482;19;19910;-21
2022/05/23 03:18:59;;;;;;;;;;;15.90;95.30;;;;;;4593863;19;19929;-21
2022/05/23 03:20:30;;;;;;;;;;;15.90;95.30;;;;;;4593987;19;20342;-21
2022/05/23 03:27:30;;;;;;;;;;;15.90;95.20;;;;;;4592999;19;20309;-21
2022/05/23 03:29:01;;;;;;;;;;;15.90;95.10;;;;;;4593760;19;19925;-21
2022/05/23 03:30:32;;;;;;;;;;;15.90;95.10;;;;;;4594516;19;19915;-21
2022/05/23 03:32:03;;;;;;;;;;;15.90;95.00;;;;;;4591216;19;20006;-20
2022/05/23 03:33:34;;;;;;;;;;;15.90;95.00;;;;;;4592730;19;19942;-21
2022/05/23 03:35:05;;;;;;;;;;;15.90;95.10;;;;;;4593399;19;19923;-20
2022/05/23 03:36:36;;;;;;;;;;;15.90;95.10;;;;;;4595767;19;19918;-20
2022/05/23 03:38:07;;;;;;;;;;;15.90;95.10;;;;;;4591321;19;20364;-20
2022/05/23 03:39:39;;;;;;;;;;;16.00;95.10;;;;;;4592972;19;19986;-21
2022/05/23 03:41:10;;;;;;;;;;;16.00;95.10;;;;;;4593517;19;19926;-21
2022/05/23 03:42:41;;;;;;;;;;;16.00;95.00;;;;;;4595517;19;19940;-21
2022/05/23 03:44:13;;;;;;;;;;;16.00;95.00;;;;;;4595300;19;19915;-21
2022/05/23 03:45:44;;;;;;;;;;;16.00;95.00;;;;;;4593193;19;19939;-21
2022/05/23 03:47:15;;;;;;;;;;;16.00;95.20;;;;;;4593289;19;20317;-21
2022/05/23 03:48:46;;;;;;;;;;;16.00;95.20;;;;;;4593123;19;19978;-21
2022/05/23 03:50:17;;;;;;;;;;;16.10;95.00;;;;;;4592026;19;19926;-21
2022/05/23 03:51:49;;;;;;;;;;;16.10;95.10;;;;;;4593075;19;20361;-21
2022/05/23 03:53:19;;;;;;;;;;;16.10;95.10;;;;;;4592568;19;19926;-21
2022/05/23 03:54:50;;;;;;;;;;;16.10;95.10;;;;;;4592246;19;20279;-21
2022/05/23 03:56:21;;;;;;;;;;;16.20;95.10;;;;;;4592734;19;19914;-21
2022/05/23 03:57:52;;;;;;;;;;;16.20;95.30;;;;;;4593312;19;20244;-21
2022/05/23 03:59:23;;;;;;;;;;;16.10;95.40;;;;;;4592336;19;19917;-21
2022/05/23 04:01:07;;;;;;;;;;;16.10;95.60;;;;;;4592373;19;19915;-21
2022/05/23 04:02:38;;;;;;;;;;;16.00;95.70;;;;;;4593072;19;20349;-21
2022/05/23 04:04:09;;;;;;;;;;;16.00;96.00;;;;;;4592925;19;20267;-21
2022/05/23 04:05:40;;;;;;;;;;;16.00;95.90;;;;;;4593778;19;19918;-21
2022/05/23 04:07:11;;;;;;;;;;;16.10;96.00;;;;;;4592250;19;20347;-21
2022/05/23 04:08:42;;;;;;;;;;;16.10;96.00;;;;;;4592992;19;19915;-21
2022/05/23 04:10:14;;;;;;;;;;;16.10;96.10;;;;;;4591233;19;20345;-21
2022/05/23 04:11:45;;;;;;;;;;;16.20;96.20;;;;;;4593466;19;19919;-21
2022/05/23 04:13:16;;;;;;;;;;;16.20;96.20;;;;;;4592759;19;19970;-21
2022/05/23 04:14:47;;;;;;;;;;;16.20;96.20;;;;;;4592827;19;19938;-21
2022/05/23 04:16:18;;;;;;;;;;;16.20;96.20;;;;;;4592745;19;19925;-21
2022/05/23 04:17:49;;;;;;;;;;;16.20;96.20;;;;;;4594482;19;19942;-21
2022/05/23 04:19:20;;;;;;;;;;;16.20;96.30;;;;;;4594355;19;19930;-21
2022/05/23 04:20:51;;;;;;;;;;;16.20;96.30;;;;;;4594808;19;20226;-20
2022/05/23 04:22:22;;;;;;;;;;;16.20;96.50;;;;;;4592418;19;20373;-20
2022/05/23 04:23:53;;;;;;;;;;;16.20;96.50;;;;;;4592551;19;19915;-21
2022/05/23 04:25:24;;;;;;;;;;;16.20;96.60;;;;;;4592807;19;19940;-21
2022/05/23 04:26:55;;;;;;;;;;;16.20;96.60;;;;;;4592322;19;19922;-21
2022/05/23 04:28:27;;;;;;;;;;;16.40;96.60;;;;;;4593120;19;19970;-21
2022/05/23 04:29:58;;;;;;;;;;;16.50;96.40;;;;;;4592486;19;19915;-21
2022/05/23 04:31:28;;;;;;;;;;;16.70;96.10;;;;;;4592408;19;19970;-21
2022/05/23 04:36:38;;;;;;;;;;;16.70;96.40;;;;;;4593033;19;19962;-21
2022/05/23 04:38:09;;;;;;;;;;;16.70;96.50;;;;;;4591493;19;19926;-21
2022/05/23 04:39:40;;;;;;;;;;;16.60;96.70;;;;;;4593128;19;19926;-21
2022/05/23 04:41:12;;;;;;;;;;;16.50;96.80;;;;;;4594869;19;19978;-21
2022/05/23 04:42:43;;;;;;;;;;;16.50;96.90;;;;;;4589837;19;20011;-21
2022/05/23 04:44:13;;;;;;;;;;;16.50;97.00;;;;;;4590863;19;20370;-21
2022/05/23 04:45:44;;;;;;;;;;;16.40;97.10;;;;;;4591364;19;19917;-21
2022/05/23 04:51:02;;;;;;;;;;;16.40;97.40;;;;;;4589695;19;19952;-20
2022/05/23 04:52:33;;;;;;;;;;;16.40;97.40;;;;;;4589644;19;19915;-20
2022/05/23 04:54:04;;;;;;;;;;;16.40;97.50;;;;;;4589811;19;20002;-21
2022/05/23 04:55:36;;;;;;;;;;;16.30;97.50;;;;;;4589096;19;20280;-20
2022/05/23 04:57:07;;;;;;;;;;;16.40;97.50;;;;;;4589648;19;20422;-20
2022/05/23 04:58:38;;;;;;;;;;;16.40;97.30;;;;;;4589702;19;19930;-21
2022/05/23 05:00:10;;;;;;;;;;;16.40;97.20;;;;;;4589678;19;20400;-20
2022/05/23 05:01:41;;;;;;;;;;;16.50;97.20;;;;;;4590288;19;19915;-20
2022/05/23 05:03:12;;;;;;;;;;;16.50;97.20;;;;;;4589593;19;19935;-20
2022/05/23 05:04:43;;;;;;;;;;;16.50;97.20;;;;;;4589409;19;19977;-20
2022/05/23 05:06:14;;;;;;;;;;;16.50;97.20;;;;;;4589852;19;19915;-21
2022/05/23 05:07:45;;;;;;;;;;;16.60;97.10;;;;;;4588545;19;19923;-21
2022/05/23 05:09:15;;;;;;;;;;;16.70;97.20;;;;;;4589528;19;19915;-20
2022/05/23 05:10:47;;;;;;;;;;;16.70;97.10;;;;;;4589681;19;19918;-20
2022/05/23 05:12:17;;;;;;;;;;;16.70;97.10;;;;;;4589814;19;19911;-21
2022/05/23 05:13:48;;;;;;;;;;;16.70;97.20;;;;;;4589232;19;19927;-20
2022/05/23 05:15:19;;;;;;;;;;;16.70;97.10;;;;;;4589060;19;19918;-20
2022/05/23 05:16:50;;;;;;;;;;;16.70;97.10;;;;;;4589477;19;19915;-20
2022/05/23 05:18:21;;;;;;;;;;;16.80;97.10;;;;;;4589313;19;19929;-21
2022/05/23 05:19:52;;;;;;;;;;;16.90;97.10;;;;;;4588905;19;20301;-21
2022/05/23 05:21:23;;;;;;;;;;;16.90;97.20;;;;;;4587948;19;20298;-21
2022/05/23 05:22:54;;;;;;;;;;;16.90;97.10;;;;;;4590997;19;19926;-21
2022/05/23 05:24:25;;;;;;;;;;;16.90;97.10;;;;;;4589334;19;19923;-21
2022/05/23 05:25:56;;;;;;;;;;;17.00;97.00;;;;;;4589255;19;19929;-21
2022/05/23 05:27:29;;;;;;;;;;;17.00;97.00;;;;;;4590632;19;19907;-21
2022/05/23 05:29:00;;;;;;;;;;;17.00;97.00;;;;;;4590696;19;19970;-21
2022/05/23 05:30:31;;;;;;;;;;;17.00;96.90;;;;;;4592931;19;19929;-21
2022/05/23 05:32:03;;;;;;;;;;;17.00;96.80;;;;;;4590348;19;20336;-21
2022/05/23 05:33:35;;;;;;;;;;;17.00;96.80;;;;;;4592530;19;19926;-21
2022/05/23 05:35:09;;;;;;;;;;;17.00;96.70;;;;;;4591665;19;19960;-21
2022/05/23 05:36:41;;;;;;;;;;;17.00;96.40;;;;;;4591530;19;20048;-21
2022/05/23 05:38:16;;;;;;;;;;;17.00;96.30;;;;;;4592657;19;19974;-21
2022/05/23 05:39:47;;;;;;;;;;;17.00;96.10;;;;;;4593822;19;20328;-21
2022/05/23 05:41:19;;;;;;;;;;;17.00;96.10;;;;;;4591601;19;19923;-21
2022/05/23 05:42:51;;;;;;;;;;;17.00;96.20;;;;;;4591663;19;19911;-21
2022/05/23 05:44:23;;;;;;;;;;;17.00;96.50;;;;;;4589454;19;19982;-21
2022/05/23 05:45:56;;;;;;;;;;;17.00;96.70;;;;;;4589627;19;20252;-21
2022/05/23 05:47:27;;;;;;;;;;;17.00;96.70;;;;;;4590062;19;19922;-21
2022/05/23 05:48:59;;;;;;;;;;;17.00;96.60;;;;;;4589795;19;19926;-21
2022/05/23 05:50:30;;;;;;;;;;;17.00;96.70;;;;;;4590520;19;20313;-21
2022/05/23 05:52:02;;;;;;;;;;;17.00;96.60;;;;;;4591351;19;19914;-21
2022/05/23 05:53:33;;;;;;;;;;;17.00;96.60;;;;;;4590962;19;20003;-21
2022/05/23 05:55:04;;;;;;;;;;;17.00;96.50;;;;;;4589011;19;19987;-21
2022/05/23 05:56:35;;;;;;;;;;;16.90;96.50;;;;;;4589831;19;20384;-21
2022/05/23 05:58:06;;;;;;;;;;;16.90;96.40;;;;;;4590767;19;19921;-21
2022/05/23 05:59:37;;;;;;;;;;;16.90;96.40;;;;;;4589498;19;20381;-21
2022/05/23 06:01:08;;;;;;;;;;;16.90;96.10;;;;;;4590158;19;19918;-21
2022/05/23 06:02:39;;;;;;;;;;;16.90;96.00;;;;;;4591111;19;19911;-21
2022/05/23 06:04:10;;;;;;;;;;;16.90;96.00;;;;;;4590842;19;19911;-21
2022/05/23 06:11:26;;;;;;;;;;;16.90;96.20;;;;;;4590929;19;19983;-21
2022/05/23 06:12:57;;;;;;;;;;;16.90;96.20;;;;;;4590833;19;19923;-21
2022/05/23 06:14:27;;;;;;;;;;;16.90;96.30;;;;;;4590675;19;20234;-21
2022/05/23 06:15:58;;;;;;;;;;;16.90;96.20;;;;;;4590428;19;20531;-21
2022/05/23 06:17:29;;;;;;;;;;;17.00;95.80;;;;;;4590577;19;19948;-21
2022/05/23 06:19:00;;;;;;;;;;;17.00;95.90;;;;;;4590988;19;19919;-21
2022/05/23 06:20:31;;;;;;;;;;;17.00;95.80;;;;;;4590196;19;19938;-21
2022/05/23 06:22:03;;;;;;;;;;;17.00;95.80;;;;;;4590289;19;19918;-21
2022/05/23 06:23:35;;;;;;;;;;;17.00;95.50;;;;;;4588555;19;19930;-21
2022/05/23 06:25:06;;;;;;;;;;;17.00;95.50;;;;;;4590361;19;20328;-21
2022/05/23 06:26:37;;;;;;;;;;;17.00;95.30;;;;;;4590365;19;19915;-21
2022/05/23 06:28:08;;;;;;;;;;;17.00;95.20;;;;;;4589567;19;19978;-21
2022/05/23 06:29:39;;;;;;;;;;;17.00;95.40;;;;;;4590394;19;19919;-21
2022/05/23 06:31:11;;;;;;;;;;;17.00;95.10;;;;;;4591066;19;19919;-21
2022/05/23 06:32:42;;;;;;;;;;;17.00;95.00;;;;;;4590355;19;19923;-21
2022/05/23 06:34:13;;;;;;;;;;;17.00;95.20;;;;;;4593625;19;19918;-21
2022/05/23 06:35:44;;;;;;;;;;;17.00;95.50;;;;;;4594720;19;19919;-21
2022/05/23 06:37:14;;;;;;;;;;;17.00;95.40;;;;;;4595071;19;19910;-21
2022/05/23 06:38:45;;;;;;;;;;;17.00;95.30;;;;;;4594728;19;19915;-21
2022/05/23 06:40:16;;;;;;;;;;;17.10;95.50;;;;;;4595057;19;19923;-21
2022/05/23 06:41:47;;;;;;;;;;;17.10;95.50;;;;;;4595201;19;19919;-21
2022/05/23 06:43:18;;;;;;;;;;;17.00;95.50;;;;;;4594516;19;20078;-21
2022/05/23 06:44:49;;;;;;;;;;;17.10;95.50;;;;;;4594662;19;19914;-21
2022/05/23 06:46:20;;;;;;;;;;;17.10;95.40;;;;;;4593814;19;20306;-21
2022/05/23 06:47:51;;;;;;;;;;;17.10;95.40;;;;;;4593469;19;19915;-21
2022/05/23 06:49:22;;;;;;;;;;;17.20;95.30;;;;;;4594660;19;19999;-21
2022/05/23 06:50:53;;;;;;;;;;;17.10;95.10;;;;;;4594697;19;19922;-21
2022/05/23 06:52:24;;;;;;;;;;;17.10;95.10;;;;;;4593618;19;20325;-21
2022/05/23 06:53:57;;;;;;;;;;;17.00;95.40;;;;;;4593273;19;19942;-22
2022/05/23 06:55:27;;;;;;;;;;;17.10;95.10;;;;;;4593339;19;19918;-20
2022/05/23 06:56:59;;;;;;;;;;;17.00;95.10;;;;;;4594763;19;20015;-21
2022/05/23 06:58:29;;;;;;;;;;;17.00;95.20;;;;;;4593287;19;19918;-21
2022/05/23 07:00:01;;;;;;;;;;;16.90;95.70;;;;;;4593615;19;19914;-21
2022/05/23 07:01:31;;;;;;;;;;;16.80;95.50;;;;;;4594595;19;19933;-21
2022/05/23 07:03:02;;;;;;;;;;;16.90;95.70;;;;;;4594335;19;19930;-21
2022/05/23 07:13:43;;;;;;;;;;;16.60;94.70;;;;;;4594063;19;19918;-21
2022/05/23 07:15:13;;;;;;;;;;;16.70;94.60;;;;;;4594081;19;19986;-21
2022/05/23 07:16:44;;;;;;;;;;;16.80;94.20;;;;;;4593859;19;20245;-21
2022/05/23 07:18:16;;;;;;;;;;;16.90;94.00;;;;;;4593733;19;19919;-21
2022/05/23 07:19:47;;;;;;;;;;;16.90;94.10;;;;;;4594259;19;19984;-21
2022/05/23 07:21:19;;;;;;;;;;;17.00;94.10;;;;;;4594401;19;20253;-21
2022/05/23 07:22:50;;;;;;;;;;;17.00;93.80;;;;;;4592976;19;20319;-21
2022/05/23 07:24:21;;;;;;;;;;;17.00;93.70;;;;;;4593649;19;19986;-21
2022/05/23 07:25:52;;;;;;;;;;;17.10;93.70;;;;;;4593883;19;19910;-21
2022/05/23 07:27:23;;;;;;;;;;;17.20;93.60;;;;;;4593496;19;20325;-21
2022/05/23 07:28:54;;;;;;;;;;;17.20;93.70;;;;;;4593651;19;19927;-21
2022/05/23 07:30:25;;;;;;;;;;;17.10;94.00;;;;;;4592392;19;19919;-21
2022/05/23 07:31:57;;;;;;;;;;;17.20;94.00;;;;;;4593108;19;20340;-21
2022/05/23 07:33:28;;;;;;;;;;;17.20;94.50;;;;;;4593342;19;19922;-21
2022/05/23 07:34:59;;;;;;;;;;;17.20;94.70;;;;;;4593631;19;19974;-21
2022/05/23 07:36:30;;;;;;;;;;;17.20;94.40;;;;;;4592724;19;19931;-21
2022/05/23 07:38:01;;;;;;;;;;;17.20;94.10;;;;;;4593582;19;19915;-21
2022/05/23 07:39:34;;;;;;;;;;;17.20;93.90;;;;;;4593151;19;19930;-21
2022/05/23 07:41:06;;;;;;;;;;;17.20;93.60;;;;;;4593570;19;19974;-21
2022/05/23 07:42:38;;;;;;;;;;;17.20;93.10;;;;;;4592552;19;19987;-21
2022/05/23 07:44:09;;;;;;;;;;;17.20;92.90;;;;;;4592845;19;19918;-21
2022/05/23 07:45:40;;;;;;;;;;;17.20;92.90;;;;;;4591456;19;19926;-21
2022/05/23 07:47:11;;;;;;;;;;;17.20;93.00;;;;;;4593347;19;19924;-21
2022/05/23 07:48:43;;;;;;;;;;;17.20;93.00;;;;;;4593519;19;19996;-21
2022/05/23 07:50:15;;;;;;;;;;;17.10;93.00;;;;;;4592265;19;19940;-21
2022/05/23 07:51:45;;;;;;;;;;;17.20;93.10;;;;;;4593047;19;20313;-21
2022/05/23 08:00:35;;;;;;;;;;;17.20;91.40;;;;;;4593025;19;19928;-21
2022/05/23 08:02:06;;;;;;;;;;;17.20;90.90;;;;;;4593249;19;19922;-21
2022/05/23 08:03:37;;;;;;;;;;;17.20;90.70;;;;;;4592323;19;19942;-21
2022/05/23 08:05:08;;;;;;;;;;;17.20;90.50;;;;;;4593230;19;19923;-21
2022/05/23 08:06:39;;;;;;;;;;;17.20;90.40;;;;;;4592806;19;19931;-21
2022/05/23 08:08:10;;;;;;;;;;;17.20;90.50;;;;;;4592246;19;19915;-21
2022/05/23 08:09:41;;;;;;;;;;;17.20;90.70;;;;;;4593015;19;19936;-21
2022/05/23 08:11:12;;;;;;;;;;;17.20;90.00;;;;;;4593434;19;20324;-21
2022/05/23 08:12:53;;;;;;;;;;;17.30;89.00;;;;;;4592640;19;20246;-21
2022/05/23 08:14:24;;;;;;;;;;;17.20;88.90;;;;;;4592686;19;19915;-21
2022/05/23 08:15:55;;;;;;;;;;;17.30;89.80;;;;;;4593191;19;19919;-21
2022/05/23 08:17:25;;;;;;;;;;;17.30;89.40;;;;;;4591692;19;19922;-21
2022/05/23 08:18:58;;;;;;;;;;;17.30;89.30;;;;;;4592174;19;20310;-21
2022/05/23 08:20:29;;;;;;;;;;;17.30;89.70;;;;;;4590151;19;19936;-21
2022/05/23 08:22:00;;;;;;;;;;;17.30;89.30;;;;;;4592564;19;19915;-21
2022/05/23 08:23:31;;;;;;;;;;;17.30;87.90;;;;;;4590536;19;19929;-21
2022/05/23 08:25:02;;;;;;;;;;;17.30;87.00;;;;;;4591447;19;19966;-21
2022/05/23 08:26:33;;;;;;;;;;;17.30;87.10;;;;;;4591501;19;20309;-21
2022/05/23 08:28:04;;;;;;;;;;;17.30;87.30;;;;;;4591500;19;19925;-21
2022/05/23 08:29:38;;;;;;;;;;;17.30;85.70;;;;;;4592067;19;19910;-21
2022/05/23 08:31:09;;;;;;;;;;;17.20;85.20;;;;;;4592419;19;20333;-21
2022/05/23 08:32:40;;;;;;;;;;;17.30;85.20;;;;;;4592871;19;19918;-21
2022/05/23 08:34:11;;;;;;;;;;;17.30;85.20;;;;;;4593296;19;19919;-21
2022/05/23 08:35:42;;;;;;;;;;;17.30;85.00;;;;;;4592354;19;19986;-21
2022/05/23 08:37:13;;;;;;;;;;;17.30;85.60;;;;;;4592483;19;19922;-21
2022/05/23 08:38:44;;;;;;;;;;;17.30;86.00;;;;;;4593046;19;20256;-21
2022/05/23 08:40:15;;;;;;;;;;;17.30;85.80;;;;;;4592603;19;19942;-21
2022/05/23 08:41:47;;;;;;;;;;;17.30;85.60;;;;;;4592467;19;19911;-21
2022/05/23 08:43:31;;;;;;;;;;;17.30;85.80;;;;;;4592616;19;19926;-21
2022/05/23 08:45:13;;;;;;;;;;;17.30;86.10;;;;;;4591692;19;19917;-21
2022/05/23 08:46:44;;;;;;;;;;;17.30;86.60;;;;;;4591848;19;20248;-21
2022/05/23 08:48:27;;;;;;;;;;;17.40;87.10;;;;;;4591056;19;19925;-21
2022/05/23 08:50:04;;;;;;;;;;;17.40;87.50;;;;;;4592222;19;19956;-21
2022/05/23 08:51:36;;;;;;;;;;;17.30;87.20;;;;;;4591422;19;19907;-21
2022/05/23 08:53:08;;;;;;;;;;;17.40;87.30;;;;;;4591980;19;19925;-21
2022/05/23 08:54:42;;;;;;;;;;;17.40;87.00;;;;;;4590727;19;20242;-21
2022/05/23 08:56:23;;;;;;;;;;;17.40;87.30;;;;;;4589531;19;20323;-21
2022/05/23 08:58:02;;;;;;;;;;;17.40;88.20;;;;;;4592201;19;19938;-21
2022/05/23 08:59:40;;;;;;;;;;;17.40;88.50;;;;;;4592601;19;19923;-20
2022/05/23 09:01:24;;;;;;;;;;;17.50;88.20;;;;;;4590250;19;19920;-21
2022/05/23 09:03:05;;;;;;;;;;;17.50;88.30;;;;;;4587551;19;19974;-21
2022/05/23 09:04:39;;;;;;;;;;;17.50;87.80;;;;;;4590100;19;19922;-21
2022/05/23 09:06:13;;;;;;;;;;;17.50;87.10;;;;;;4590810;19;19911;-21
2022/05/23 09:07:54;;;;;;;;;;;17.50;87.10;;;;;;4590582;19;20252;-21
2022/05/23 09:09:29;;;;;;;;;;;17.50;87.00;;;;;;4590261;19;19927;-20
2022/05/23 09:11:09;;;;;;;;;;;17.50;87.10;;;;;;4590529;19;19930;-21
2022/05/23 09:12:40;;;;;;;;;;;17.60;87.00;;;;;;4589383;19;19918;-20
2022/05/23 09:14:12;;;;;;;;;;;17.60;86.00;;;;;;4590386;19;19929;-21
2022/05/23 09:15:52;;;;;;;;;;;17.50;86.20;;;;;;4590377;19;19926;-21
2022/05/23 09:17:26;;;;;;;;;;;17.60;86.60;;;;;;4590171;19;20024;-21
2022/05/23 09:19:17;;;;;;;;;;;17.60;86.70;;;;;;4590154;19;19947;-21
2022/05/23 09:20:49;;;;;;;;;;;17.60;86.40;;;;;;4588950;19;19953;-21
2022/05/23 09:22:29;;;;;;;;;;;17.60;86.80;;;;;;4589215;19;20395;-21
2022/05/23 09:24:01;;;;;;;;;;;17.50;87.60;;;;;;4589244;19;19910;-21
2022/05/23 09:25:32;;;;;;;;;;;17.60;88.10;;;;;;4588693;19;20337;-21
2022/05/23 09:27:05;;;;;;;;;;;17.60;88.70;;;;;;4589070;19;20326;-21
2022/05/23 09:28:39;;;;;;;;;;;17.60;87.50;;;;;;4587773;19;19921;-20
2022/05/23 09:30:13;;;;;;;;;;;17.60;87.30;;;;;;4588807;19;19978;-20
2022/05/23 09:31:48;;;;;;;;;;;17.60;87.10;;;;;;4588849;19;19915;-20
2022/05/23 09:33:19;;;;;;;;;;;17.50;86.90;;;;;;4588625;19;19947;-20
2022/05/23 09:35:00;;;;;;;;;;;17.50;86.60;;;;;;4589413;19;20300;-21
2022/05/23 09:36:32;;;;;;;;;;;17.50;86.80;;;;;;4589244;19;19914;-21
2022/05/23 09:38:23;;;;;;;;;;;17.60;86.80;;;;;;4588845;19;19931;-21